sensor_id;sensor_type;location;lat;lon;timestamp;temperature;humidity
18268;DHT22;9260;49.998;19.880;2023-05-19T00:05:17;7.40;1.00
18268;DHT22;9260;49.998;19.880;2023-05-19T00:15:21;7.30;1.00
18268;DHT22;9260;49.998;19.880;2023-05-19T00:25:26;7.40;1.00
18268;DHT22;9260;49.998;19.880;2023-05-19T00:35:29;7.70;1.00
18268;DHT22;9260;49.998;19.880;2023-05-19T00:45:34;7.30;1.00
18268;DHT22;9260;49.998;19.880;2023-05-19T00:55:39;7.70;1.00
18268;DHT22;9260;49.998;19.880;2023-05-19T01:05:44;7.40;1.00
18268;DHT22;9260;49.998;19.880;2023-05-19T01:15:54;7.30;1.00
18268;DHT22;9260;49.998;19.880;2023-05-19T01:26:19;7.40;1.00
18268;DHT22;9260;49.998;19.880;2023-05-19T01:36:45;7.40;1.00
18268;DHT22;9260;49.998;19.880;2023-05-19T01:46:50;7.30;1.00
18268;DHT22;9260;49.998;19.880;2023-05-19T01:56:56;7.30;1.00
18268;DHT22;9260;49.998;19.880;2023-05-19T02:07:08;7.40;1.00
18268;DHT22;9260;49.998;19.880;2023-05-19T02:17:17;7.80;1.00
18268;DHT22;9260;49.998;19.880;2023-05-19T02:27:22;7.50;1.00
18268;DHT22;9260;49.998;19.880;2023-05-19T02:37:28;7.20;1.00
18268;DHT22;9260;49.998;19.880;2023-05-19T02:47:31;7.70;1.00
18268;DHT22;9260;49.998;19.880;2023-05-19T02:57:39;7.40;1.00
18268;DHT22;9260;49.998;19.880;2023-05-19T03:07:43;7.60;1.00
18268;DHT22;9260;49.998;19.880;2023-05-19T03:17:48;7.30;1.00
18268;DHT22;9260;49.998;19.880;2023-05-19T03:27:51;7.50;1.00
18268;DHT22;9260;49.998;19.880;2023-05-19T03:37:56;7.60;1.00
18268;DHT22;9260;49.998;19.880;2023-05-19T03:48:00;8.20;1.00
18268;DHT22;9260;49.998;19.880;2023-05-19T03:58:23;7.60;1.00
18268;DHT22;9260;49.998;19.880;2023-05-19T04:08:27;8.10;1.00
18268;DHT22;9260;49.998;19.880;2023-05-19T04:18:32;7.90;1.00
18268;DHT22;9260;49.998;19.880;2023-05-19T04:28:35;8.20;1.00
18268;DHT22;9260;49.998;19.880;2023-05-19T04:38:42;8.50;1.00
18268;DHT22;9260;49.998;19.880;2023-05-19T04:48:48;8.70;1.00
18268;DHT22;9260;49.998;19.880;2023-05-19T04:58:53;8.70;1.00
18268;DHT22;9260;49.998;19.880;2023-05-19T05:08:57;8.90;1.00
18268;DHT22;9260;49.998;19.880;2023-05-19T05:19:03;9.50;1.00
18268;DHT22;9260;49.998;19.880;2023-05-19T05:29:07;9.80;1.00
18268;DHT22;9260;49.998;19.880;2023-05-19T05:39:13;9.80;1.00
18268;DHT22;9260;49.998;19.880;2023-05-19T05:49:18;9.90;1.00
18268;DHT22;9260;49.998;19.880;2023-05-19T05:59:25;10.10;1.00
18268;DHT22;9260;49.998;19.880;2023-05-19T06:09:28;10.10;1.00
18268;DHT22;9260;49.998;19.880;2023-05-19T06:19:33;10.30;1.00
18268;DHT22;9260;49.998;19.880;2023-05-19T06:29:38;10.40;1.00
18268;DHT22;9260;49.998;19.880;2023-05-19T06:39:44;10.80;1.00
18268;DHT22;9260;49.998;19.880;2023-05-19T06:49:48;11.10;1.00
18268;DHT22;9260;49.998;19.880;2023-05-19T07:00:00;11.60;1.00
18268;DHT22;9260;49.998;19.880;2023-05-19T07:10:05;12.80;1.00
18268;DHT22;9260;49.998;19.880;2023-05-19T07:20:10;14.00;99.90
18268;DHT22;9260;49.998;19.880;2023-05-19T07:30:14;14.00;1.00
18268;DHT22;9260;49.998;19.880;2023-05-19T07:40:19;13.10;1.00
18268;DHT22;9260;49.998;19.880;2023-05-19T07:50:22;12.90;1.00
18268;DHT22;9260;49.998;19.880;2023-05-19T08:00:27;13.20;99.90
18268;DHT22;9260;49.998;19.880;2023-05-19T08:10:30;12.70;1.00
18268;DHT22;9260;49.998;19.880;2023-05-19T08:20:35;13.00;1.00
18268;DHT22;9260;49.998;19.880;2023-05-19T08:30:39;12.70;1.00
18268;DHT22;9260;49.998;19.880;2023-05-19T08:40:44;12.70;1.00
18268;DHT22;9260;49.998;19.880;2023-05-19T08:50:51;12.70;1.00
18268;DHT22;9260;49.998;19.880;2023-05-19T09:01:00;12.80;1.00
18268;DHT22;9260;49.998;19.880;2023-05-19T09:11:05;12.70;1.00
18268;DHT22;9260;49.998;19.880;2023-05-19T09:21:09;12.10;1.00
18268;DHT22;9260;49.998;19.880;2023-05-19T09:31:13;12.70;1.00
18268;DHT22;9260;49.998;19.880;2023-05-19T09:41:18;13.20;1.00
18268;DHT22;9260;49.998;19.880;2023-05-19T09:51:23;13.20;1.00
18268;DHT22;9260;49.998;19.880;2023-05-19T10:01:28;13.10;1.00
18268;DHT22;9260;49.998;19.880;2023-05-19T10:11:34;13.10;1.00
18268;DHT22;9260;49.998;19.880;2023-05-19T10:21:39;13.60;1.00
18268;DHT22;9260;49.998;19.880;2023-05-19T10:31:42;13.80;1.00
18268;DHT22;9260;49.998;19.880;2023-05-19T10:41:52;13.60;1.00
18268;DHT22;9260;49.998;19.880;2023-05-19T10:52:00;13.80;1.00
18268;DHT22;9260;49.998;19.880;2023-05-19T11:02:05;13.80;1.00
18268;DHT22;9260;49.998;19.880;2023-05-19T11:12:10;14.40;1.00
18268;DHT22;9260;49.998;19.880;2023-05-19T11:22:14;14.60;1.00
18268;DHT22;9260;49.998;19.880;2023-05-19T11:32:18;14.80;1.00
18268;DHT22;9260;49.998;19.880;2023-05-19T11:42:23;14.80;1.00
18268;DHT22;9260;49.998;19.880;2023-05-19T11:52:27;15.00;1.00
18268;DHT22;9260;49.998;19.880;2023-05-19T12:02:31;15.10;1.00
18268;DHT22;9260;49.998;19.880;2023-05-19T12:12:35;15.90;1.00
18268;DHT22;9260;49.998;19.880;2023-05-19T12:22:39;16.00;99.90
18268;DHT22;9260;49.998;19.880;2023-05-19T12:32:43;15.20;1.00
18268;DHT22;9260;49.998;19.880;2023-05-19T12:42:51;15.10;1.00
18268;DHT22;9260;49.998;19.880;2023-05-19T12:52:59;14.60;1.00
18268;DHT22;9260;49.998;19.880;2023-05-19T13:03:05;14.30;1.00
18268;DHT22;9260;49.998;19.880;2023-05-19T13:13:09;13.80;1.00
18268;DHT22;9260;49.998;19.880;2023-05-19T13:23:14;13.40;1.00
18268;DHT22;9260;49.998;19.880;2023-05-19T13:33:17;13.40;1.00
18268;DHT22;9260;49.998;19.880;2023-05-19T13:43:22;13.60;1.00
18268;DHT22;9260;49.998;19.880;2023-05-19T13:53:25;13.10;1.00
18268;DHT22;9260;49.998;19.880;2023-05-19T14:03:31;13.00;1.00
18268;DHT22;9260;49.998;19.880;2023-05-19T14:13:35;12.40;1.00
18268;DHT22;9260;49.998;19.880;2023-05-19T14:23:45;12.60;1.00
18268;DHT22;9260;49.998;19.880;2023-05-19T14:33:48;12.60;1.00
18268;DHT22;9260;49.998;19.880;2023-05-19T14:43:55;12.50;1.00
18268;DHT22;9260;49.998;19.880;2023-05-19T14:53:59;12.50;1.00
18268;DHT22;9260;49.998;19.880;2023-05-19T15:04:04;12.40;1.00
18268;DHT22;9260;49.998;19.880;2023-05-19T15:14:07;12.20;1.00
18268;DHT22;9260;49.998;19.880;2023-05-19T15:24:12;11.90;1.00
18268;DHT22;9260;49.998;19.880;2023-05-19T15:34:15;11.60;1.00
18268;DHT22;9260;49.998;19.880;2023-05-19T15:44:20;11.50;1.00
18268;DHT22;9260;49.998;19.880;2023-05-19T15:54:23;11.50;1.00
18268;DHT22;9260;49.998;19.880;2023-05-19T16:04:28;11.50;1.00
18268;DHT22;9260;49.998;19.880;2023-05-19T16:14:31;11.20;1.00
18268;DHT22;9260;49.998;19.880;2023-05-19T16:24:38;11.20;1.00
18268;DHT22;9260;49.998;19.880;2023-05-19T16:34:42;11.30;1.00
18268;DHT22;9260;49.998;19.880;2023-05-19T16:44:46;11.00;1.00
18268;DHT22;9260;49.998;19.880;2023-05-19T16:54:50;10.90;1.00
18268;DHT22;9260;49.998;19.880;2023-05-19T17:04:54;10.80;1.00
18268;DHT22;9260;49.998;19.880;2023-05-19T17:14:57;10.60;1.00
18268;DHT22;9260;49.998;19.880;2023-05-19T17:25:03;10.50;1.00
18268;DHT22;9260;49.998;19.880;2023-05-19T17:35:07;10.30;99.90
18268;DHT22;9260;49.998;19.880;2023-05-19T17:45:12;10.30;1.00
18268;DHT22;9260;49.998;19.880;2023-05-19T17:55:16;10.30;1.00
18268;DHT22;9260;49.998;19.880;2023-05-19T18:05:22;10.20;1.00
18268;DHT22;9260;49.998;19.880;2023-05-19T18:15:25;10.10;1.00
18268;DHT22;9260;49.998;19.880;2023-05-19T18:25:30;10.10;1.00
18268;DHT22;9260;49.998;19.880;2023-05-19T18:35:33;10.00;1.00
18268;DHT22;9260;49.998;19.880;2023-05-19T18:45:39;10.10;1.00
18268;DHT22;9260;49.998;19.880;2023-05-19T18:55:42;9.90;1.00
18268;DHT22;9260;49.998;19.880;2023-05-19T19:05:53;9.80;1.00
18268;DHT22;9260;49.998;19.880;2023-05-19T19:15:56;9.70;1.00
18268;DHT22;9260;49.998;19.880;2023-05-19T19:26:03;9.80;1.00
18268;DHT22;9260;49.998;19.880;2023-05-19T19:36:09;9.80;1.00
18268;DHT22;9260;49.998;19.880;2023-05-19T19:46:13;9.80;1.00
18268;DHT22;9260;49.998;19.880;2023-05-19T19:56:17;9.70;1.00
18268;DHT22;9260;49.998;19.880;2023-05-19T20:06:22;9.70;1.00
18268;DHT22;9260;49.998;19.880;2023-05-19T20:16:25;9.70;1.00
18268;DHT22;9260;49.998;19.880;2023-05-19T20:26:30;9.60;1.00
18268;DHT22;9260;49.998;19.880;2023-05-19T20:36:33;9.60;1.00
18268;DHT22;9260;49.998;19.880;2023-05-19T20:46:38;9.80;1.00
18268;DHT22;9260;49.998;19.880;2023-05-19T20:56:41;9.50;1.00
18268;DHT22;9260;49.998;19.880;2023-05-19T21:06:46;9.40;1.00
18268;DHT22;9260;49.998;19.880;2023-05-19T21:16:50;9.40;1.00
18268;DHT22;9260;49.998;19.880;2023-05-19T21:26:56;9.40;1.00
18268;DHT22;9260;49.998;19.880;2023-05-19T21:36:59;9.40;1.00
18268;DHT22;9260;49.998;19.880;2023-05-19T21:47:04;9.50;1.00
18268;DHT22;9260;49.998;19.880;2023-05-19T21:57:07;9.40;1.00
18268;DHT22;9260;49.998;19.880;2023-05-19T22:07:13;9.30;1.00
18268;DHT22;9260;49.998;19.880;2023-05-19T22:17:16;9.30;1.00
18268;DHT22;9260;49.998;19.880;2023-05-19T22:27:21;9.40;1.00
18268;DHT22;9260;49.998;19.880;2023-05-19T22:37:24;9.40;1.00
18268;DHT22;9260;49.998;19.880;2023-05-19T22:47:30;9.20;1.00
18268;DHT22;9260;49.998;19.880;2023-05-19T22:57:34;9.10;1.00
18268;DHT22;9260;49.998;19.880;2023-05-19T23:07:38;9.30;1.00
18268;DHT22;9260;49.998;19.880;2023-05-19T23:17:42;9.20;1.00
18268;DHT22;9260;49.998;19.880;2023-05-19T23:27:46;9.60;1.00
18268;DHT22;9260;49.998;19.880;2023-05-19T23:37:49;9.10;1.00
18268;DHT22;9260;49.998;19.880;2023-05-19T23:47:56;9.00;1.00
18268;DHT22;9260;49.998;19.880;2023-05-19T23:57:59;8.90;1.00
